• Join FlightAware (Why Join?)
  • Login
  • US Flag 
04:14AM EDT


 

Airport Tracker/Info


-or-


 

Live Flight TrackerFlight Track Log ✈ AFR1048 ✈ 09-Apr-2013 ✈ LFPG / CDG - LEBL / BCN

Flight Track Log - Related Links

Times and Time Zones

All times are in EDT time to prevent confusion due to time zone crossing. See the AFR1048 flight status page for this flight to view local times or setup timezone preferences in your user account.

Time Position Orientation Groundspeed Altitude Reporting Facility
EDT Latitude Longitude Course Direction KTS MPH feet Rate Location/Type
11:02AM 48.2258 2.4956 183° South  Level Estimated
11:03AM 48.1471 2.4902 183° South  Level Estimated
11:04AM 48.0684 2.4849 183° South  Level Estimated
11:05AM 47.9897 2.4796 183° South  Level Estimated
11:06AM 47.9110 2.4743 183° South  Level Estimated
11:07AM 47.8323 2.4690 183° South  Level Estimated
11:08AM 47.7536 2.4637 183° South  Level Estimated
11:09AM 47.6749 2.4585 183° South  Level Estimated
11:10AM 47.5962 2.4532 183° South  Level Estimated
11:11AM 47.5175 2.4480 183° South  Level Estimated
11:12AM 47.4388 2.4428 183° South  Level Estimated
11:13AM 47.3601 2.4376 183° South  Level Estimated
11:14AM 47.2814 2.4325 183° South  Level Estimated
11:15AM 47.2027 2.4273 183° South  Level Estimated
11:16AM 47.1240 2.4222 183° South  Level Estimated
11:17AM 47.0453 2.4170 183° South  Level Estimated
11:18AM 46.9666 2.4119 183° South  Level Estimated
11:19AM 46.8879 2.4068 183° South  Level Estimated
11:20AM 46.8092 2.4018 183° South  Level Estimated
11:21AM 46.7305 2.3967 183° South  Level Estimated
11:22AM 46.6518 2.3916 183° South  Level Estimated
11:23AM 46.5731 2.3866 183° South  Level Estimated
11:24AM 46.4944 2.3816 183° South  Level Estimated
11:25AM 46.4157 2.3766 183° South  Level Estimated
11:26AM 46.3370 2.3716 183° South  Level Estimated
11:27AM 46.2583 2.3666 183° South  Level Estimated
11:28AM 46.1726 2.3612 183° South  Level Estimated
11:29AM 46.0869 2.3558 182° South  Level Estimated
11:30AM 46.0012 2.3504 182° South  Level Estimated
11:31AM 45.9155 2.3451 182° South  Level Estimated
11:32AM 45.8298 2.3397 182° South  Level Estimated
11:33AM 45.7441 2.3344 182° South  Level Estimated
11:34AM 45.6584 2.3291 182° South  Level Estimated
11:35AM 45.5727 2.3238 182° South  Level Estimated
11:36AM 45.4870 2.3185 182° South  Level Estimated
11:37AM 45.4013 2.3133 182° South  Level Estimated
11:38AM 45.3156 2.3080 182° South  Level Estimated
11:39AM 45.2299 2.3028 182° South  Level Estimated
11:40AM 45.1442 2.2976 182° South  Level Estimated
11:41AM 45.0585 2.2924 182° South  Level Estimated
11:42AM 44.9728 2.2872 182° South  Level Estimated
11:43AM 44.8871 2.2820 182° South  Level Estimated
11:44AM 44.8014 2.2769 182° South  Level Estimated
11:45AM 44.7157 2.2718 182° South  Level Estimated
11:46AM 44.6300 2.2666 182° South  Level Estimated
11:47AM 44.5443 2.2615 182° South  Level Estimated
11:48AM 44.4586 2.2564 182° South  Level Estimated
11:49AM 44.3729 2.2514 182° South  Level Estimated
11:50AM 44.2872 2.2463 182° South  Level Estimated
11:51AM 44.2015 2.2413 182° South  Level Estimated
11:52AM 44.1157 2.2362 182° South  Level Estimated
11:53AM 44.0300 2.2312 182° South  Level Estimated
11:54AM 43.9443 2.2262 182° South  Level Estimated
11:55AM 43.8586 2.2212 182° South  Level Estimated
11:56AM 43.7729 2.2163 182° South  Level Estimated
11:57AM 43.6872 2.2113 182° South  Level Estimated
11:58AM 43.6015 2.2064 182° South  Level Estimated
11:59AM 43.5158 2.2014 182° South  Level Estimated
12:00PM 43.4301 2.1965 182° South  Level Estimated
12:01PM 43.3443 2.1916 182° South  Level Estimated
12:02PM 43.2586 2.1867 182° South  Level Estimated
12:03PM 43.1729 2.1819 182° South  Level Estimated
12:04PM 43.0872 2.1770 182° South  Level Estimated
12:05PM 43.0015 2.1721 182° South  Level Estimated
12:06PM 42.9158 2.1673 182° South  Level Estimated
12:07PM 42.8301 2.1625 182° South  Level Estimated
12:08PM 42.7444 2.1577 182° South  Level Estimated
12:09PM 42.6587 2.1529 182° South  Level Estimated
12:10PM 42.5730 2.1481 182° South  Level Estimated
12:11PM 42.4873 2.1433 182° South  Level Estimated
12:12PM 42.4015 2.1386 182° South  Level Estimated
12:13PM 42.3129 2.1337 182° South  Level Estimated
12:14PM 42.2242 2.1288 182° South  Level Estimated
12:15PM 42.1355 2.1239 182° South  Level Estimated
12:16PM 42.0469 2.1191 182° South  Level Estimated
12:17PM 41.9582 2.1142 182° South  Level Estimated
12:18PM 41.8695 2.1094 182° South  Level Estimated
12:19PM 41.7808 2.1045 182° South  Level Estimated
12:20PM 41.6922 2.0997 182° South  Level Estimated
12:21PM 41.6035 2.0949 182° South  Level Estimated
12:22PM 41.5148 2.0902 182° South  Level Estimated
12:23PM 41.4262 2.0854 182° South  Level Estimated
12:24PM 41.3375 2.0806 182° South  Level Estimated
12:25PM 41.2971 2.0785 182° South  Level Estimated
12:26PM 41.2971 2.0785 124° Southeast  Level Estimated
12:27PM 41.2971 2.0785 124° Southeast  Level Estimated
12:28PM 41.2971 2.0785 124° Southeast  Level Estimated
12:29PM 41.2971 2.0785 124° Southeast  Level Estimated
12:30PM 41.2971 2.0785 124° Southeast  Level Estimated
12:31PM 41.2971 2.0785 124° Southeast  Level Estimated
12:32PM 41.2971 2.0785 124° Southeast  Level Estimated